Time,TemperatureF,DewpointF,PressureIn,WindDirection,WindDirectionDegrees,WindSpeedMPH,WindSpeedGustMPH,Humidity,HourlyPrecipIn,Conditions,Clouds,dailyrainin,SolarRadiationWatts/m^2,SoftwareType,DateUTC
2013-02-17 00:00:00,35.5,25.3,30.19,NNW,329,0.0,0.0,66,0.00,CLR,,0.00,0.0,WeatherDisplay:10.37,2013-02-17 06:00:00,
2013-02-17 00:05:00,35.6,25.0,30.19,NNW,329,0.0,0.0,65,0.00,CLR,,0.00,0.0,WeatherDisplay:10.37,2013-02-17 06:05:00,
2013-02-17 00:10:00,35.6,25.0,30.19,NNW,329,0.0,0.0,65,0.00,CLR,,0.00,0.0,WeatherDisplay:10.37,2013-02-17 06:10:00,
2013-02-17 00:15:00,35.6,26.1,30.19,NNW,329,0.0,0.0,68,0.00,CLR,,0.00,0.0,WeatherDisplay:10.37,2013-02-17 06:15:00,
2013-02-17 00:20:00,35.5,25.6,30.19,NNW,329,0.0,0.0,67,0.00,CLR,,0.00,0.0,WeatherDisplay:10.37,2013-02-17 06:20:00,
2013-02-17 00:25:00,35.6,25.7,30.19,NNW,329,0.0,0.0,67,0.00,CLR,,0.00,0.0,WeatherDisplay:10.37,2013-02-17 06:25:00,
2013-02-17 00:30:00,35.3,26.1,30.19,NNW,329,0.0,0.0,69,0.00,CLR,,0.00,0.0,WeatherDisplay:10.37,2013-02-17 06:30:00,
2013-02-17 00:35:00,35.2,25.0,30.19,NNE,30,2.0,2.6,66,0.00,CLR,,0.00,0.0,WeatherDisplay:10.37,2013-02-17 06:35:00,
2013-02-17 00:40:00,35.2,25.3,30.19,NNE,30,0.3,1.3,67,0.00,CLR,,0.00,0.0,WeatherDisplay:10.37,2013-02-17 06:40:00,
2013-02-17 00:45:00,35.1,25.6,30.19,NNE,30,0.9,2.6,68,0.00,CLR,,0.00,0.0,WeatherDisplay:10.37,2013-02-17 06:45:00,
2013-02-17 00:50:00,35.3,25.8,30.19,NNE,26,0.0,0.0,68,0.00,CLR,,0.00,0.0,WeatherDisplay:10.37,2013-02-17 06:50:00,
2013-02-17 00:55:00,35.4,25.5,30.19,NNE,24,2.0,2.6,67,0.00,CLR,,0.00,0.0,WeatherDisplay:10.37,2013-02-17 06:55:00,
2013-02-17 01:00:00,35.7,24.7,30.18,NNE,22,2.2,3.5,64,0.00,CLR,,0.00,0.0,WeatherDisplay:10.37,2013-02-17 07:00:00,
2013-02-17 01:05:00,35.9,24.1,30.18,NNE,23,0.3,1.3,62,0.00,CLR,,0.00,0.0,WeatherDisplay:10.37,2013-02-17 07:05:00,
2013-02-17 01:10:00,36.1,23.1,30.18,NE,45,1.9,3.5,59,0.00,CLR,,0.00,0.0,WeatherDisplay:10.37,2013-02-17 07:10:00,
2013-02-17 01:15:00,36.1,23.1,30.18,ENE,57,1.4,3.5,59,0.00,CLR,,0.00,0.0,WeatherDisplay:10.37,2013-02-17 07:15:00,
2013-02-17 01:20:00,36.1,23.1,30.18,ENE,57,0.6,1.3,59,0.00,CLR,,0.00,0.0,WeatherDisplay:10.37,2013-02-17 07:20:00,
2013-02-17 01:25:00,35.7,23.2,30.18,NNE,22,1.2,0.0,60,0.00,CLR,,0.00,0.0,WeatherDisplay:10.37,2013-02-17 07:25:00,
2013-02-17 01:30:00,35.2,22.7,30.18,NNE,27,0.0,1.1,60,0.00,CLR,,0.00,0.0,WeatherDisplay:10.37,2013-02-17 07:30:00,
2013-02-17 01:35:00,34.6,22.9,30.18,NNE,27,0.0,0.0,62,0.00,CLR,,0.00,0.0,WeatherDisplay:10.37,2013-02-17 07:35:00,
2013-02-17 01:40:00,34.1,22.8,30.18,North,11,0.7,1.1,63,0.00,CLR,,0.00,0.0,WeatherDisplay:10.37,2013-02-17 07:40:00,
2013-02-17 01:45:00,33.8,22.5,30.18,NE,52,0.0,0.0,63,0.00,CLR,,0.00,0.0,WeatherDisplay:10.37,2013-02-17 07:45:00,
2013-02-17 01:50:00,33.5,23.0,30.18,NE,49,0.0,0.0,65,0.00,CLR,,0.00,0.0,WeatherDisplay:10.37,2013-02-17 07:50:00,
2013-02-17 01:55:00,33.3,22.8,30.17,NE,49,0.1,1.3,65,0.00,CLR,,0.00,0.0,WeatherDisplay:10.37,2013-02-17 07:55:00,
2013-02-17 02:00:00,33.1,22.6,30.17,NE,49,0.0,0.0,65,0.00,CLR,,0.00,0.0,WeatherDisplay:10.37,2013-02-17 08:00:00,
2013-02-17 02:06:00,33.1,22.6,30.17,NE,49,0.0,0.0,65,0.00,CLR,,0.00,0.0,WeatherDisplay:10.37,2013-02-17 08:06:00,
2013-02-17 02:11:00,33.1,22.6,30.17,NE,49,0.0,0.0,65,0.00,CLR,,0.00,0.0,WeatherDisplay:10.37,2013-02-17 08:11:00,
2013-02-17 02:16:00,33.2,22.7,30.17,NE,49,0.0,0.0,65,0.00,CLR,,0.00,0.0,WeatherDisplay:10.37,2013-02-17 08:16:00,
2013-02-17 02:21:00,33.3,22.8,30.17,NE,49,0.0,0.0,65,0.00,CLR,,0.00,0.0,WeatherDisplay:10.37,2013-02-17 08:21:00,
2013-02-17 02:26:00,33.1,24.0,30.16,NE,49,0.0,0.0,69,0.00,CLR,,0.00,0.0,WeatherDisplay:10.37,2013-02-17 08:26:00,
2013-02-17 02:31:00,33.1,23.7,30.16,NE,49,0.0,0.0,68,0.00,CLR,,0.00,0.0,WeatherDisplay:10.37,2013-02-17 08:31:00,
2013-02-17 02:36:00,33.3,23.2,30.16,NE,49,0.0,0.0,66,0.00,CLR,,0.00,0.0,WeatherDisplay:10.37,2013-02-17 08:36:00,
2013-02-17 02:41:00,33.4,23.3,30.16,NE,49,0.0,0.0,66,0.00,CLR,,0.00,0.0,WeatherDisplay:10.37,2013-02-17 08:41:00,
2013-02-17 02:46:00,33.4,22.9,30.17,NE,49,0.0,0.0,65,0.00,CLR,,0.00,0.0,WeatherDisplay:10.37,2013-02-17 08:46:00,
2013-02-17 02:51:00,33.4,22.9,30.17,NE,49,0.0,0.0,65,0.00,CLR,,0.00,0.0,WeatherDisplay:10.37,2013-02-17 08:51:00,
2013-02-17 02:56:00,33.4,22.5,30.16,NE,49,0.0,0.0,64,0.00,CLR,,0.00,0.0,WeatherDisplay:10.37,2013-02-17 08:56:00,
2013-02-17 03:01:00,33.0,22.5,30.17,NE,49,0.0,0.0,65,0.00,CLR,,0.00,0.0,WeatherDisplay:10.37,2013-02-17 09:01:00,
2013-02-17 03:06:00,32.7,22.6,30.16,NE,49,0.0,0.0,66,0.00,CLR,,0.00,0.0,WeatherDisplay:10.37,2013-02-17 09:06:00,
2013-02-17 03:11:00,32.1,22.4,30.16,NE,49,0.0,0.0,67,0.00,CLR,,0.00,0.0,WeatherDisplay:10.37,2013-02-17 09:11:00,
2013-02-17 03:16:00,31.9,22.2,30.16,NE,49,0.0,0.0,67,0.00,OVC,,0.00,0.0,WeatherDisplay:10.37,2013-02-17 09:16:00,
2013-02-17 03:21:00,31.6,22.6,30.16,NE,49,0.0,0.0,69,0.00,OVC,,0.00,0.0,WeatherDisplay:10.37,2013-02-17 09:21:00,
2013-02-17 03:26:00,31.5,22.5,30.16,NE,49,0.0,0.0,69,0.00,OVC,,0.00,0.0,WeatherDisplay:10.37,2013-02-17 09:26:00,
2013-02-17 03:31:00,31.4,23.1,30.16,NE,49,0.0,0.0,71,0.00,OVC,,0.00,0.0,WeatherDisplay:10.37,2013-02-17 09:31:00,
2013-02-17 03:36:00,31.4,23.7,30.16,NE,49,0.0,0.0,73,0.00,OVC,,0.00,0.0,WeatherDisplay:10.37,2013-02-17 09:36:00,
2013-02-17 03:41:00,31.6,24.3,30.16,NE,49,0.0,0.0,74,0.00,OVC,,0.00,0.0,WeatherDisplay:10.37,2013-02-17 09:41:00,
2013-02-17 03:46:00,32.0,24.0,30.15,NE,37,1.4,3.5,72,0.00,OVC,,0.00,0.0,WeatherDisplay:10.37,2013-02-17 09:46:00,
2013-02-17 03:51:00,32.5,24.5,30.15,NE,37,0.0,0.0,72,0.00,OVC,,0.00,0.0,WeatherDisplay:10.37,2013-02-17 09:51:00,
2013-02-17 03:56:00,32.7,24.3,30.15,NE,37,0.0,0.0,71,0.00,OVC,,0.00,0.0,WeatherDisplay:10.37,2013-02-17 09:56:00,
2013-02-17 04:01:00,32.8,23.7,30.15,NNE,19,0.3,2.3,69,0.00,OVC,,0.00,0.0,WeatherDisplay:10.37,2013-02-17 10:01:00,
2013-02-17 04:06:00,32.9,23.1,30.15,NNE,24,0.0,0.0,67,0.00,OVC,,0.00,0.0,WeatherDisplay:10.37,2013-02-17 10:06:00,
2013-02-17 04:11:00,33.1,22.6,30.15,NNE,24,0.0,0.0,65,0.00,OVC,,0.00,0.0,WeatherDisplay:10.37,2013-02-17 10:11:00,
2013-02-17 04:16:00,33.0,22.1,30.15,NNE,24,0.0,0.0,64,0.00,OVC,,0.00,0.0,WeatherDisplay:10.37,2013-02-17 10:16:00,
2013-02-17 04:21:00,33.0,22.1,30.15,North,360,0.0,0.0,64,0.00,OVC,,0.00,0.0,WeatherDisplay:10.37,2013-02-17 10:21:00,
2013-02-17 04:26:00,32.8,22.0,30.15,North,360,0.0,0.0,64,0.00,OVC,,0.00,0.0,WeatherDisplay:10.37,2013-02-17 10:26:00,
2013-02-17 04:31:00,32.6,22.5,30.15,North,360,0.4,1.3,66,0.00,OVC,,0.00,0.0,WeatherDisplay:10.37,2013-02-17 10:31:00,
2013-02-17 04:36:00,32.5,21.3,30.15,North,360,0.0,0.0,63,0.00,OVC,,0.00,0.0,WeatherDisplay:10.37,2013-02-17 10:36:00,
2013-02-17 04:41:00,32.6,22.1,30.15,North,360,0.0,0.0,65,0.00,OVC,,0.00,0.0,WeatherDisplay:10.37,2013-02-17 10:41:00,
2013-02-17 04:46:00,32.7,22.6,30.15,North,360,0.0,0.0,66,0.00,OVC,,0.00,0.0,WeatherDisplay:10.37,2013-02-17 10:46:00,
2013-02-17 04:51:00,32.8,22.7,30.15,NE,56,0.0,0.0,66,0.00,OVC,,0.00,0.0,WeatherDisplay:10.37,2013-02-17 10:51:00,
2013-02-17 04:56:00,32.8,22.7,30.15,NE,56,0.0,0.0,66,0.00,OVC,,0.00,0.0,WeatherDisplay:10.37,2013-02-17 10:56:00,
2013-02-17 05:01:00,32.8,22.3,30.15,NE,56,1.3,2.3,65,0.00,OVC,,0.00,0.0,WeatherDisplay:10.37,2013-02-17 11:01:00,
2013-02-17 05:06:00,32.9,22.4,30.16,NE,55,0.0,1.1,65,0.00,OVC,,0.00,0.0,WeatherDisplay:10.37,2013-02-17 11:06:00,
2013-02-17 05:11:00,33.0,22.1,30.16,NE,55,0.0,0.0,64,0.00,OVC,,0.00,0.0,WeatherDisplay:10.37,2013-02-17 11:11:00,
2013-02-17 05:16:00,33.2,22.0,30.15,ENE,59,1.1,1.3,63,0.00,OVC,,0.00,0.0,WeatherDisplay:10.37,2013-02-17 11:16:00,
2013-02-17 05:21:00,33.2,22.0,30.15,ENE,59,0.0,0.0,63,0.00,OVC,,0.00,0.0,WeatherDisplay:10.37,2013-02-17 11:21:00,
2013-02-17 05:26:00,33.1,21.9,30.15,ENE,59,0.0,0.0,63,0.00,OVC,,0.00,0.0,WeatherDisplay:10.37,2013-02-17 11:26:00,
2013-02-17 05:31:00,32.9,22.0,30.15,ENE,59,0.0,0.0,64,0.00,OVC,,0.00,0.0,WeatherDisplay:10.37,2013-02-17 11:31:00,
2013-02-17 05:36:00,32.9,22.0,30.16,NE,49,0.0,0.0,64,0.00,OVC,,0.00,0.0,WeatherDisplay:10.37,2013-02-17 11:36:00,
2013-02-17 05:41:00,32.8,21.6,30.15,NE,49,0.0,0.0,63,0.00,OVC,,0.00,0.0,WeatherDisplay:10.37,2013-02-17 11:41:00,
2013-02-17 05:46:00,32.5,21.7,30.15,NE,49,0.0,0.0,64,0.00,OVC,,0.00,0.0,WeatherDisplay:10.37,2013-02-17 11:46:00,
2013-02-17 05:51:00,32.2,21.4,30.15,NE,48,0.0,0.0,64,0.00,OVC,,0.00,0.0,WeatherDisplay:10.37,2013-02-17 11:51:00,
2013-02-17 05:56:00,32.0,21.6,30.15,NE,48,0.0,0.0,65,0.00,OVC,,0.00,0.0,WeatherDisplay:10.37,2013-02-17 11:56:00,
2013-02-17 06:01:00,32.0,21.6,30.16,NE,48,1.0,1.3,65,0.00,BKN,,0.00,0.0,WeatherDisplay:10.37,2013-02-17 12:01:00,
2013-02-17 06:06:00,32.1,21.3,30.16,NE,48,0.2,1.1,64,0.00,BKN,,0.00,0.0,WeatherDisplay:10.37,2013-02-17 12:06:00,
2013-02-17 06:11:00,31.8,21.4,30.16,NE,48,0.0,0.0,65,0.00,BKN,,0.00,0.0,WeatherDisplay:10.37,2013-02-17 12:11:00,
2013-02-17 06:16:00,31.9,21.8,30.16,NE,48,0.0,0.0,66,0.00,BKN,,0.00,0.0,WeatherDisplay:10.37,2013-02-17 12:16:00,
2013-02-17 06:21:00,31.8,21.7,30.15,NE,48,0.3,1.1,66,0.00,BKN,,0.00,0.0,WeatherDisplay:10.37,2013-02-17 12:21:00,
2013-02-17 06:26:00,31.7,21.6,30.16,NE,48,1.1,1.3,66,0.00,BKN,,0.00,0.0,WeatherDisplay:10.37,2013-02-17 12:26:00,
2013-02-17 06:31:00,31.8,21.0,30.16,NE,48,0.0,0.0,64,0.00,BKN,,0.00,0.0,WeatherDisplay:10.37,2013-02-17 12:31:00,
2013-02-17 06:36:00,31.7,21.3,30.16,NE,48,0.0,0.0,65,0.00,BKN,,0.00,0.0,WeatherDisplay:10.37,2013-02-17 12:36:00,
2013-02-17 06:41:00,31.7,21.6,30.16,NE,49,0.1,1.1,66,0.00,BKN,,0.00,0.0,WeatherDisplay:10.37,2013-02-17 12:41:00,
2013-02-17 06:46:00,31.6,21.5,30.16,NE,49,0.0,0.0,66,0.00,BKN,,0.00,0.0,WeatherDisplay:10.37,2013-02-17 12:46:00,
2013-02-17 06:51:00,31.6,21.5,30.16,NE,49,0.0,0.0,66,0.00,BKN,,0.00,0.0,WeatherDisplay:10.37,2013-02-17 12:51:00,
2013-02-17 06:56:00,31.7,21.6,30.15,NE,51,1.5,3.5,66,0.00,BKN,,0.00,0.0,WeatherDisplay:10.37,2013-02-17 12:56:00,
2013-02-17 07:01:00,31.9,21.5,30.16,NE,46,1.7,2.3,65,0.00,OVC,,0.00,5.0,WeatherDisplay:10.37,2013-02-17 13:01:00,
2013-02-17 07:06:00,31.9,21.5,30.16,NE,41,0.8,1.1,65,0.00,OVC,,0.00,9.0,WeatherDisplay:10.37,2013-02-17 13:06:00,
2013-02-17 07:11:00,32.1,21.3,30.16,NE,42,1.7,2.3,64,0.00,OVC,,0.00,18.0,WeatherDisplay:10.37,2013-02-17 13:11:00,
2013-02-17 07:16:00,32.0,21.9,30.16,NE,49,0.2,2.3,66,0.00,OVC,,0.00,26.0,WeatherDisplay:10.37,2013-02-17 13:16:00,
2013-02-17 07:21:00,32.4,21.9,30.16,NE,43,1.2,2.3,65,0.00,OVC,,0.00,39.0,WeatherDisplay:10.37,2013-02-17 13:21:00,
2013-02-17 07:26:00,33.1,21.9,30.16,ENE,70,1.9,5.8,63,0.00,OVC,,0.00,49.0,WeatherDisplay:10.37,2013-02-17 13:26:00,
2013-02-17 07:31:00,34.0,22.0,30.16,NE,39,0.0,2.3,61,0.00,OVC,,0.00,60.0,WeatherDisplay:10.37,2013-02-17 13:31:00,
2013-02-17 07:36:00,34.9,21.2,30.16,ENE,65,1.9,2.3,57,0.00,OVC,,0.00,69.0,WeatherDisplay:10.37,2013-02-17 13:36:00,
2013-02-17 07:41:00,35.3,21.2,30.16,ENE,76,4.1,6.9,56,0.00,OVC,,0.00,53.0,WeatherDisplay:10.37,2013-02-17 13:41:00,
2013-02-17 07:46:00,35.3,21.2,30.16,ENE,60,3.0,3.5,56,0.00,OVC,,0.00,49.0,WeatherDisplay:10.37,2013-02-17 13:46:00,
2013-02-17 07:51:00,35.3,21.2,30.16,NNE,17,3.2,3.5,56,0.00,OVC,,0.00,116.0,WeatherDisplay:10.37,2013-02-17 13:51:00,
2013-02-17 07:56:00,35.7,21.1,30.16,NNE,32,5.2,6.9,55,0.00,OVC,,0.00,107.0,WeatherDisplay:10.37,2013-02-17 13:56:00,
2013-02-17 08:01:00,36.1,21.5,30.16,NE,48,2.4,5.8,55,0.00,CLR,,0.00,158.0,WeatherDisplay:10.37,2013-02-17 14:01:00,
2013-02-17 08:06:00,36.7,21.2,30.16,ENE,78,3.9,5.8,53,0.00,CLR,,0.00,181.0,WeatherDisplay:10.37,2013-02-17 14:06:00,
2013-02-17 08:11:00,37.4,22.3,30.16,NE,55,3.1,3.5,54,0.00,CLR,,0.00,202.0,WeatherDisplay:10.37,2013-02-17 14:11:00,
2013-02-17 08:16:00,37.7,21.6,30.16,ENE,74,4.5,8.1,52,0.00,CLR,,0.00,216.0,WeatherDisplay:10.37,2013-02-17 14:16:00,
2013-02-17 08:21:00,37.9,20.9,30.16,NE,49,4.7,9.2,50,0.00,CLR,,0.00,134.0,WeatherDisplay:10.37,2013-02-17 14:21:00,
2013-02-17 08:26:00,38.2,21.2,30.16,ENE,78,7.0,8.1,50,0.00,CLR,,0.00,237.0,WeatherDisplay:10.37,2013-02-17 14:26:00,
2013-02-17 08:31:00,38.7,21.6,30.16,ENE,69,4.7,9.2,50,0.00,CLR,,0.00,265.0,WeatherDisplay:10.37,2013-02-17 14:31:00,
2013-02-17 08:36:00,39.2,20.6,30.16,East,93,5.2,9.2,47,0.00,CLR,,0.00,281.0,WeatherDisplay:10.37,2013-02-17 14:36:00,
2013-02-17 08:41:00,39.6,21.5,30.16,NE,44,5.0,8.1,48,0.00,CLR,,0.00,297.0,WeatherDisplay:10.37,2013-02-17 14:41:00,
2013-02-17 08:46:00,40.0,21.9,30.16,ENE,58,4.8,6.9,48,0.00,CLR,,0.00,315.0,WeatherDisplay:10.37,2013-02-17 14:46:00,
2013-02-17 08:51:00,40.2,21.6,30.16,East,80,8.0,9.2,47,0.00,CLR,,0.00,330.0,WeatherDisplay:10.37,2013-02-17 14:51:00,
2013-02-17 08:56:00,40.6,21.4,30.16,East,97,5.7,10.4,46,0.00,CLR,,0.00,348.0,WeatherDisplay:10.37,2013-02-17 14:56:00,
2013-02-17 09:01:00,41.1,21.3,30.16,East,98,6.5,9.2,45,0.00,CLR,,0.00,364.0,WeatherDisplay:10.37,2013-02-17 15:01:00,
2013-02-17 09:06:00,41.8,21.5,30.16,NE,38,3.2,8.1,44,0.00,CLR,,0.00,381.0,WeatherDisplay:10.37,2013-02-17 15:06:00,
2013-02-17 09:11:00,42.3,21.4,30.16,NNE,32,5.2,6.9,43,0.00,CLR,,0.00,397.0,WeatherDisplay:10.37,2013-02-17 15:11:00,
2013-02-17 09:16:00,42.4,20.9,30.16,East,79,5.9,9.2,42,0.00,CLR,,0.00,411.0,WeatherDisplay:10.37,2013-02-17 15:16:00,
2013-02-17 09:21:00,42.6,19.9,30.16,NE,48,7.7,11.5,40,0.00,CLR,,0.00,427.0,WeatherDisplay:10.37,2013-02-17 15:21:00,
2013-02-17 09:26:00,43.2,19.9,30.16,East,83,5.7,6.9,39,0.00,CLR,,0.00,443.0,WeatherDisplay:10.37,2013-02-17 15:26:00,
2013-02-17 09:31:00,43.7,22.6,30.16,East,79,8.8,9.2,43,0.00,CLR,,0.00,459.0,WeatherDisplay:10.37,2013-02-17 15:31:00,
2013-02-17 09:36:00,43.8,22.2,30.16,East,82,7.5,7.5,42,0.00,CLR,,0.00,475.0,WeatherDisplay:10.37,2013-02-17 15:36:00,
2013-02-17 09:41:00,44.0,20.6,30.15,SE,127,6.0,8.1,39,0.00,CLR,,0.00,490.0,WeatherDisplay:10.37,2013-02-17 15:41:00,
2013-02-17 09:46:00,44.4,21.0,30.15,ESE,119,7.5,7.9,39,0.00,CLR,,0.00,504.0,WeatherDisplay:10.37,2013-02-17 15:46:00,
2013-02-17 09:51:00,44.6,20.5,30.15,East,94,8.4,9.2,38,0.00,CLR,,0.00,519.0,WeatherDisplay:10.37,2013-02-17 15:51:00,
2013-02-17 09:56:00,44.9,20.2,30.15,ESE,102,5.9,11.5,37,0.00,CLR,,0.00,531.0,WeatherDisplay:10.37,2013-02-17 15:56:00,
2013-02-17 10:01:00,45.4,21.9,30.15,ESE,109,5.2,6.9,39,0.00,CLR,,0.00,543.0,WeatherDisplay:10.37,2013-02-17 16:01:00,
2013-02-17 10:06:00,45.7,20.9,30.14,ENE,65,10.2,10.4,37,0.00,CLR,,0.00,557.0,WeatherDisplay:10.37,2013-02-17 16:06:00,
2013-02-17 10:11:00,46.2,21.3,30.14,ESE,109,11.1,11.1,37,0.00,CLR,,0.00,570.0,WeatherDisplay:10.37,2013-02-17 16:11:00,
2013-02-17 10:16:00,46.4,21.5,30.14,ESE,104,7.7,10.4,37,0.00,CLR,,0.00,584.0,WeatherDisplay:10.37,2013-02-17 16:16:00,
2013-02-17 10:21:00,46.6,21.7,30.14,East,100,6.5,9.2,37,0.00,CLR,,0.00,596.0,WeatherDisplay:10.37,2013-02-17 16:21:00,
2013-02-17 10:26:00,47.0,22.7,30.14,ESE,106,6.5,9.2,38,0.00,CLR,,0.00,603.0,WeatherDisplay:10.37,2013-02-17 16:26:00,
2013-02-17 10:31:00,48.1,21.0,30.13,ESE,113,9.7,10.4,34,0.00,CLR,,0.00,617.0,WeatherDisplay:10.37,2013-02-17 16:31:00,
2013-02-17 10:36:00,48.3,23.2,30.13,East,93,4.9,8.1,37,0.00,CLR,,0.00,628.0,WeatherDisplay:10.37,2013-02-17 16:36:00,
2013-02-17 10:41:00,48.1,21.0,30.13,SE,128,8.9,9.2,34,0.00,CLR,,0.00,638.0,WeatherDisplay:10.37,2013-02-17 16:41:00,
2013-02-17 10:46:00,48.4,22.6,30.13,ESE,109,6.6,9.2,36,0.00,CLR,,0.00,647.0,WeatherDisplay:10.37,2013-02-17 16:46:00,
2013-02-17 10:51:00,48.7,22.9,30.13,East,92,3.4,9.2,36,0.00,CLR,,0.00,656.0,WeatherDisplay:10.37,2013-02-17 16:51:00,
2013-02-17 10:56:00,49.4,22.2,30.13,SE,132,7.9,9.2,34,0.00,CLR,,0.00,664.0,WeatherDisplay:10.37,2013-02-17 16:56:00,
2013-02-17 11:01:00,49.6,22.3,30.13,SE,130,9.0,10.6,34,0.00,CLR,,0.00,675.0,WeatherDisplay:10.37,2013-02-17 17:01:00,
2013-02-17 11:06:00,49.6,21.6,30.12,ENE,57,6.6,10.4,33,0.00,CLR,,0.00,682.0,WeatherDisplay:10.37,2013-02-17 17:06:00,
2013-02-17 11:11:00,49.6,22.3,30.12,ENE,76,4.4,6.9,34,0.00,CLR,,0.00,691.0,WeatherDisplay:10.37,2013-02-17 17:11:00,
2013-02-17 11:16:00,50.2,23.6,30.12,ENE,77,6.7,9.2,35,0.00,CLR,,0.00,696.0,WeatherDisplay:10.37,2013-02-17 17:16:00,
2013-02-17 11:21:00,50.4,21.6,30.12,ESE,114,6.6,9.2,32,0.00,CLR,,0.00,703.0,WeatherDisplay:10.37,2013-02-17 17:21:00,
2013-02-17 11:26:00,50.8,22.7,30.11,SE,137,9.4,10.6,33,0.00,CLR,,0.00,710.0,WeatherDisplay:10.37,2013-02-17 17:26:00,
2013-02-17 11:31:00,51.2,24.5,30.11,ESE,105,2.1,9.2,35,0.00,CLR,,0.00,715.0,WeatherDisplay:10.37,2013-02-17 17:31:00,
2013-02-17 11:36:00,50.9,22.8,30.10,ESE,106,7.1,10.4,33,0.00,CLR,,0.00,721.0,WeatherDisplay:10.37,2013-02-17 17:36:00,
2013-02-17 11:41:00,51.3,23.1,30.10,East,85,6.7,9.2,33,0.00,CLR,,0.00,726.0,WeatherDisplay:10.37,2013-02-17 17:41:00,
2013-02-17 11:46:00,52.3,24.7,30.10,East,80,5.9,9.2,34,0.00,CLR,,0.00,731.0,WeatherDisplay:10.37,2013-02-17 17:46:00,
2013-02-17 11:51:00,52.4,25.5,30.09,ESE,120,9.3,12.7,35,0.00,CLR,,0.00,735.0,WeatherDisplay:10.37,2013-02-17 17:51:00,
2013-02-17 11:56:00,52.1,23.1,30.09,ESE,121,8.2,12.7,32,0.00,CLR,,0.00,740.0,WeatherDisplay:10.37,2013-02-17 17:56:00,
2013-02-17 12:01:00,52.7,22.9,30.09,ESE,113,10.8,11.9,31,0.00,CLR,,0.00,744.0,WeatherDisplay:10.37,2013-02-17 18:01:00,
2013-02-17 12:06:00,52.4,24.1,30.08,ESE,119,6.6,11.5,33,0.00,CLR,,0.00,747.0,WeatherDisplay:10.37,2013-02-17 18:06:00,
2013-02-17 12:11:00,52.8,25.2,30.08,East,98,9.0,10.6,34,0.00,CLR,,0.00,749.0,WeatherDisplay:10.37,2013-02-17 18:11:00,
2013-02-17 12:16:00,52.7,23.6,30.07,East,90,7.1,9.2,32,0.00,CLR,,0.00,751.0,WeatherDisplay:10.37,2013-02-17 18:16:00,
2013-02-17 12:21:00,53.8,23.8,30.07,East,90,9.6,10.4,31,0.00,CLR,,0.00,752.0,WeatherDisplay:10.37,2013-02-17 18:21:00,
2013-02-17 12:26:00,53.5,24.3,30.07,East,95,8.5,11.9,32,0.00,CLR,,0.00,752.0,WeatherDisplay:10.37,2013-02-17 18:26:00,
2013-02-17 12:31:00,54.1,24.9,30.06,ESE,117,10.0,12.7,32,0.00,CLR,,0.00,752.0,WeatherDisplay:10.37,2013-02-17 18:31:00,
2013-02-17 12:36:00,54.2,23.4,30.06,East,86,6.5,9.2,30,0.00,CLR,,0.00,754.0,WeatherDisplay:10.37,2013-02-17 18:36:00,
2013-02-17 12:42:00,54.9,24.0,30.06,ESE,117,9.2,9.2,30,0.00,CLR,,0.00,752.0,WeatherDisplay:10.37,2013-02-17 18:42:00,
2013-02-17 12:47:00,54.9,23.2,30.05,ESE,122,9.3,9.3,29,0.00,CLR,,0.00,754.0,WeatherDisplay:10.37,2013-02-17 18:47:00,
2013-02-17 12:52:00,54.8,23.1,30.05,SE,140,4.7,6.9,29,0.00,CLR,,0.00,752.0,WeatherDisplay:10.37,2013-02-17 18:52:00,
2013-02-17 12:57:00,55.0,23.3,30.05,SE,128,9.2,12.7,29,0.00,CLR,,0.00,751.0,WeatherDisplay:10.37,2013-02-17 18:57:00,
2013-02-17 13:02:00,55.1,25.0,30.05,SE,134,3.4,5.8,31,0.00,CLR,,0.00,749.0,WeatherDisplay:10.37,2013-02-17 19:02:00,
2013-02-17 13:07:00,55.7,23.9,30.04,East,96,8.9,9.2,29,0.00,CLR,,0.00,745.0,WeatherDisplay:10.37,2013-02-17 19:07:00,
2013-02-17 13:12:00,55.5,23.7,30.04,ESE,107,6.8,9.2,29,0.00,CLR,,0.00,740.0,WeatherDisplay:10.37,2013-02-17 19:12:00,
2013-02-17 13:17:00,56.0,25.8,30.03,SE,144,4.2,6.9,31,0.00,CLR,,0.00,737.0,WeatherDisplay:10.37,2013-02-17 19:17:00,
2013-02-17 13:22:00,56.5,25.4,30.03,ESE,112,8.8,11.5,30,0.00,CLR,,0.00,731.0,WeatherDisplay:10.37,2013-02-17 19:22:00,
2013-02-17 13:27:00,56.9,24.1,30.03,ESE,112,10.6,12.7,28,0.00,CLR,,0.00,724.0,WeatherDisplay:10.37,2013-02-17 19:27:00,
2013-02-17 13:32:00,56.6,23.8,30.02,East,98,7.6,11.5,28,0.00,CLR,,0.00,719.0,WeatherDisplay:10.37,2013-02-17 19:32:00,
2013-02-17 13:37:00,57.1,25.1,30.02,East,84,7.0,9.2,29,0.00,CLR,,0.00,712.0,WeatherDisplay:10.37,2013-02-17 19:37:00,
2013-02-17 13:42:00,57.4,24.5,30.01,NE,45,4.2,5.8,28,0.00,CLR,,0.00,705.0,WeatherDisplay:10.37,2013-02-17 19:42:00,
2013-02-17 13:47:00,57.6,25.5,30.01,NE,43,7.2,8.1,29,0.00,CLR,,0.00,698.0,WeatherDisplay:10.37,2013-02-17 19:47:00,
2013-02-17 13:52:00,57.9,25.8,30.01,ENE,77,11.6,12.7,29,0.00,CLR,,0.00,693.0,WeatherDisplay:10.37,2013-02-17 19:52:00,
2013-02-17 13:57:00,57.6,24.7,30.01,ENE,71,6.0,10.6,28,0.00,CLR,,0.00,686.0,WeatherDisplay:10.37,2013-02-17 19:57:00,
2013-02-17 14:02:00,58.3,27.8,30.00,ENE,76,6.6,10.4,31,0.00,CLR,,0.00,679.0,WeatherDisplay:10.37,2013-02-17 20:02:00,
2013-02-17 14:07:00,58.8,25.7,30.00,East,98,6.2,9.2,28,0.00,CLR,,0.00,671.0,WeatherDisplay:10.37,2013-02-17 20:07:00,
2013-02-17 14:12:00,59.1,26.0,30.00,NNE,21,6.6,11.5,28,0.00,CLR,,0.00,663.0,WeatherDisplay:10.37,2013-02-17 20:12:00,
2013-02-17 14:17:00,59.0,26.8,30.00,NNE,28,6.8,9.2,29,0.00,CLR,,0.00,654.0,WeatherDisplay:10.37,2013-02-17 20:17:00,
2013-02-17 14:22:00,59.4,27.9,30.00,East,87,3.5,8.1,30,0.00,CLR,,0.00,643.0,WeatherDisplay:10.37,2013-02-17 20:22:00,
2013-02-17 14:27:00,59.8,28.3,30.00,East,86,4.9,8.1,30,0.00,CLR,,0.00,631.0,WeatherDisplay:10.37,2013-02-17 20:27:00,
2013-02-17 14:32:00,60.5,27.2,29.99,ENE,74,6.4,6.9,28,0.00,CLR,,0.00,624.0,WeatherDisplay:10.37,2013-02-17 20:32:00,
2013-02-17 14:37:00,60.4,28.8,29.99,NE,44,3.2,5.8,30,0.00,CLR,,0.00,615.0,WeatherDisplay:10.37,2013-02-17 20:37:00,
2013-02-17 14:42:00,60.3,27.9,29.99,ENE,59,3.1,3.5,29,0.00,CLR,,0.00,605.0,WeatherDisplay:10.37,2013-02-17 20:42:00,
2013-02-17 14:47:00,60.6,27.3,29.98,ESE,107,7.8,10.4,28,0.00,CLR,,0.00,591.0,WeatherDisplay:10.37,2013-02-17 20:47:00,
2013-02-17 14:52:00,60.4,28.0,29.98,East,86,6.4,9.2,29,0.00,CLR,,0.00,578.0,WeatherDisplay:10.37,2013-02-17 20:52:00,
2013-02-17 14:57:00,61.0,29.3,29.98,ENE,68,4.3,8.1,30,0.00,CLR,,0.00,564.0,WeatherDisplay:10.37,2013-02-17 20:57:00,
2013-02-17 15:02:00,61.6,29.8,29.97,ESE,113,3.8,5.8,30,0.00,CLR,,0.00,550.0,WeatherDisplay:10.37,2013-02-17 21:02:00,
2013-02-17 15:07:00,61.9,30.1,29.97,East,96,6.4,9.2,30,0.00,CLR,,0.00,538.0,WeatherDisplay:10.37,2013-02-17 21:07:00,
2013-02-17 15:12:00,61.4,28.0,29.97,ENE,74,5.6,8.1,28,0.00,CLR,,0.00,526.0,WeatherDisplay:10.37,2013-02-17 21:12:00,
2013-02-17 15:17:00,61.7,29.1,29.97,ENE,68,8.5,15.0,29,0.00,CLR,,0.00,510.0,WeatherDisplay:10.37,2013-02-17 21:17:00,
2013-02-17 15:22:00,62.0,28.5,29.96,NE,48,6.0,9.2,28,0.00,CLR,,0.00,496.0,WeatherDisplay:10.37,2013-02-17 21:22:00,
2013-02-17 15:27:00,62.4,30.5,29.96,ENE,63,3.2,3.5,30,0.00,CLR,,0.00,482.0,WeatherDisplay:10.37,2013-02-17 21:27:00,
2013-02-17 15:32:00,62.1,29.4,29.96,NE,49,7.5,10.4,29,0.00,CLR,,0.00,466.0,WeatherDisplay:10.37,2013-02-17 21:32:00,
2013-02-17 15:37:00,62.0,30.2,29.96,East,89,6.1,8.1,30,0.00,CLR,,0.00,448.0,WeatherDisplay:10.37,2013-02-17 21:37:00,
2013-02-17 15:42:00,62.5,29.8,29.96,East,79,6.1,9.2,29,0.00,CLR,,0.00,431.0,WeatherDisplay:10.37,2013-02-17 21:42:00,
2013-02-17 15:47:00,62.3,29.6,29.95,NE,44,6.2,6.9,29,0.00,CLR,,0.00,417.0,WeatherDisplay:10.37,2013-02-17 21:47:00,
2013-02-17 15:52:00,62.5,29.8,29.95,ESE,121,7.6,8.1,29,0.00,CLR,,0.00,401.0,WeatherDisplay:10.37,2013-02-17 21:52:00,
2013-02-17 15:57:00,62.3,29.6,29.95,ENE,74,9.7,11.5,29,0.00,CLR,,0.00,381.0,WeatherDisplay:10.37,2013-02-17 21:57:00,
2013-02-17 16:02:00,62.6,31.5,29.95,East,80,8.7,9.2,31,0.00,CLR,,0.00,364.0,WeatherDisplay:10.37,2013-02-17 22:02:00,
2013-02-17 16:07:00,62.6,30.7,29.95,East,96,7.2,9.2,30,0.00,CLR,,0.00,346.0,WeatherDisplay:10.37,2013-02-17 22:07:00,
2013-02-17 16:12:00,62.7,31.6,29.95,East,101,5.7,8.1,31,0.00,CLR,,0.00,329.0,WeatherDisplay:10.37,2013-02-17 22:12:00,
2013-02-17 16:17:00,62.5,29.8,29.95,ESE,102,7.9,10.4,29,0.00,CLR,,0.00,309.0,WeatherDisplay:10.37,2013-02-17 22:17:00,
2013-02-17 16:22:00,62.5,31.4,29.94,East,88,6.2,9.2,31,0.00,CLR,,0.00,292.0,WeatherDisplay:10.37,2013-02-17 22:22:00,
2013-02-17 16:27:00,62.6,29.9,29.94,East,86,6.8,8.1,29,0.00,CLR,,0.00,272.0,WeatherDisplay:10.37,2013-02-17 22:27:00,
2013-02-17 16:32:00,62.8,30.9,29.94,ESE,104,6.0,8.1,30,0.00,CLR,,0.00,250.0,WeatherDisplay:10.37,2013-02-17 22:32:00,
2013-02-17 16:37:00,62.6,30.7,29.94,ESE,122,6.1,9.2,30,0.00,CLR,,0.00,202.0,WeatherDisplay:10.37,2013-02-17 22:37:00,
2013-02-17 16:42:00,62.6,30.7,29.94,ESE,111,5.2,8.1,30,0.00,CLR,,0.00,171.0,WeatherDisplay:10.37,2013-02-17 22:42:00,
2013-02-17 16:47:00,62.7,30.8,29.94,East,90,8.1,15.0,30,0.00,CLR,,0.00,93.0,WeatherDisplay:10.37,2013-02-17 22:47:00,
2013-02-17 16:52:00,62.6,30.7,29.94,ENE,61,2.9,3.5,30,0.00,CLR,,0.00,144.0,WeatherDisplay:10.37,2013-02-17 22:52:00,
2013-02-17 16:57:00,62.5,31.4,29.94,ENE,71,3.9,6.9,31,0.00,CLR,,0.00,113.0,WeatherDisplay:10.37,2013-02-17 22:57:00,
2013-02-17 17:02:00,62.4,32.9,29.94,ENE,63,2.9,3.5,33,0.00,CLR,,0.00,118.0,WeatherDisplay:10.37,2013-02-17 23:02:00,
2013-02-17 17:07:00,62.0,31.8,29.94,East,98,2.6,3.5,32,0.00,CLR,,0.00,62.0,WeatherDisplay:10.37,2013-02-17 23:07:00,
2013-02-17 17:12:00,62.1,31.9,29.94,NE,46,3.3,5.8,32,0.00,CLR,,0.00,58.0,WeatherDisplay:10.37,2013-02-17 23:12:00,
2013-02-17 17:17:00,61.8,33.1,29.94,NE,46,1.9,2.6,34,0.00,CLR,,0.00,62.0,WeatherDisplay:10.37,2013-02-17 23:17:00,
2013-02-17 17:22:00,61.4,32.8,29.94,East,80,2.8,4.0,34,0.00,CLR,,0.00,53.0,WeatherDisplay:10.37,2013-02-17 23:22:00,
2013-02-17 17:27:00,61.0,33.1,29.94,ENE,63,1.4,2.6,35,0.00,CLR,,0.00,35.0,WeatherDisplay:10.37,2013-02-17 23:27:00,
2013-02-17 17:32:00,60.7,32.1,29.94,ENE,59,2.6,2.6,34,0.00,CLR,,0.00,26.0,WeatherDisplay:10.37,2013-02-17 23:32:00,
2013-02-17 17:37:00,60.4,31.9,29.94,ENE,59,0.0,0.0,34,0.00,CLR,,0.00,19.0,WeatherDisplay:10.37,2013-02-17 23:37:00,
2013-02-17 17:42:00,60.8,31.5,29.94,ENE,59,0.0,0.0,33,0.00,CLR,,0.00,16.0,WeatherDisplay:10.37,2013-02-17 23:42:00,
2013-02-17 17:47:00,60.2,33.8,29.94,NE,50,3.3,4.0,37,0.00,CLR,,0.00,12.0,WeatherDisplay:10.37,2013-02-17 23:47:00,
2013-02-17 17:52:00,59.8,31.3,29.94,ENE,65,1.6,2.6,34,0.00,CLR,,0.00,9.0,WeatherDisplay:10.37,2013-02-17 23:52:00,
2013-02-17 17:57:00,59.2,32.9,29.94,SSW,211,3.0,3.5,37,0.00,CLR,,0.00,5.0,WeatherDisplay:10.37,2013-02-17 23:57:00,
2013-02-17 18:02:00,58.4,32.9,29.94,SW,224,1.3,2.3,38,0.00,CLR,,0.00,0.0,WeatherDisplay:10.37,2013-02-18 00:02:00,
2013-02-17 18:07:00,57.9,33.1,29.94,SW,224,0.0,0.0,39,0.00,CLR,,0.00,0.0,WeatherDisplay:10.37,2013-02-18 00:07:00,
2013-02-17 18:12:00,56.9,32.2,29.94,SW,224,0.1,1.3,39,0.00,CLR,,0.00,0.0,WeatherDisplay:10.37,2013-02-18 00:12:00,
2013-02-17 18:17:00,55.5,32.8,29.94,SW,224,0.0,0.0,42,0.00,CLR,,0.00,0.0,WeatherDisplay:10.37,2013-02-18 00:17:00,
2013-02-17 18:22:00,54.2,33.9,29.94,SW,224,0.0,0.0,46,0.00,CLR,,0.00,0.0,WeatherDisplay:10.37,2013-02-18 00:22:00,
2013-02-17 18:27:00,52.7,33.5,29.94,SW,224,0.0,0.0,48,0.00,CLR,,0.00,0.0,WeatherDisplay:10.37,2013-02-18 00:27:00,
2013-02-17 18:32:00,51.9,33.3,29.94,SW,224,0.0,0.0,49,0.00,CLR,,0.00,0.0,WeatherDisplay:10.37,2013-02-18 00:32:00,
2013-02-17 18:37:00,50.8,33.8,29.95,SW,224,0.0,0.0,52,0.00,CLR,,0.00,0.0,WeatherDisplay:10.37,2013-02-18 00:37:00,
2013-02-17 18:42:00,50.6,33.6,29.95,SW,224,0.0,0.0,52,0.00,CLR,,0.00,0.0,WeatherDisplay:10.37,2013-02-18 00:42:00,
2013-02-17 18:47:00,49.9,33.9,29.95,ESE,107,0.0,0.0,54,0.00,CLR,,0.00,0.0,WeatherDisplay:10.37,2013-02-18 00:47:00,
2013-02-17 18:52:00,49.8,33.8,29.95,ESE,107,0.0,0.0,54,0.00,CLR,,0.00,0.0,WeatherDisplay:10.37,2013-02-18 00:52:00,
2013-02-17 18:57:00,49.8,33.8,29.95,ESE,107,0.0,0.0,54,0.00,CLR,,0.00,0.0,WeatherDisplay:10.37,2013-02-18 00:57:00,
2013-02-17 19:02:00,49.6,34.1,29.95,ESE,107,0.0,0.0,55,0.00,CLR,,0.00,0.0,WeatherDisplay:10.37,2013-02-18 01:02:00,
2013-02-17 19:07:00,48.8,34.2,29.95,ESE,107,0.0,0.0,57,0.00,CLR,,0.00,0.0,WeatherDisplay:10.37,2013-02-18 01:07:00,
2013-02-17 19:12:00,48.5,33.9,29.95,ESE,107,0.0,0.0,57,0.00,CLR,,0.00,0.0,WeatherDisplay:10.37,2013-02-18 01:12:00,
2013-02-17 19:17:00,48.5,34.4,29.95,ESE,107,0.0,0.0,58,0.00,CLR,,0.00,0.0,WeatherDisplay:10.37,2013-02-18 01:17:00,
2013-02-17 19:22:00,47.8,34.6,29.95,ESE,107,0.0,0.0,60,0.00,CLR,,0.00,0.0,WeatherDisplay:10.37,2013-02-18 01:22:00,
2013-02-17 19:27:00,48.4,34.3,29.95,ESE,107,0.0,0.0,58,0.00,CLR,,0.00,0.0,WeatherDisplay:10.37,2013-02-18 01:27:00,
2013-02-17 19:32:00,48.6,34.5,29.95,ESE,107,0.0,0.0,58,0.00,CLR,,0.00,0.0,WeatherDisplay:10.37,2013-02-18 01:32:00,
2013-02-17 19:37:00,47.4,34.2,29.95,ESE,107,0.0,0.0,60,0.00,CLR,,0.00,0.0,WeatherDisplay:10.37,2013-02-18 01:37:00,
2013-02-17 19:42:00,47.1,34.7,29.95,ESE,107,0.0,0.0,62,0.00,CLR,,0.00,0.0,WeatherDisplay:10.37,2013-02-18 01:42:00,
2013-02-17 19:47:00,46.8,34.5,29.95,ESE,107,0.0,0.0,62,0.00,CLR,,0.00,0.0,WeatherDisplay:10.37,2013-02-18 01:47:00,
2013-02-17 19:52:00,46.2,34.3,29.96,ESE,107,0.0,0.0,63,0.00,CLR,,0.00,0.0,WeatherDisplay:10.37,2013-02-18 01:52:00,
2013-02-17 19:57:00,45.6,34.5,29.96,ESE,107,0.0,0.0,65,0.00,CLR,,0.00,0.0,WeatherDisplay:10.37,2013-02-18 01:57:00,
2013-02-17 20:02:00,45.4,34.3,29.96,ENE,61,0.0,0.0,65,0.00,CLR,,0.00,0.0,WeatherDisplay:10.37,2013-02-18 02:02:00,
2013-02-17 20:07:00,45.0,34.7,29.96,ENE,61,0.0,0.0,67,0.00,CLR,,0.00,0.0,WeatherDisplay:10.37,2013-02-18 02:07:00,
2013-02-17 20:12:00,44.5,34.2,29.96,ENE,61,0.0,0.0,67,0.00,CLR,,0.00,0.0,WeatherDisplay:10.37,2013-02-18 02:12:00,
2013-02-17 20:17:00,44.4,34.1,29.95,ENE,61,0.0,0.0,67,0.00,CLR,,0.00,0.0,WeatherDisplay:10.37,2013-02-18 02:17:00,
2013-02-17 20:22:00,44.3,34.0,29.96,ENE,61,0.0,0.0,67,0.00,CLR,,0.00,0.0,WeatherDisplay:10.37,2013-02-18 02:22:00,
2013-02-17 20:27:00,44.5,34.2,29.96,ENE,61,0.0,0.0,67,0.00,CLR,,0.00,0.0,WeatherDisplay:10.37,2013-02-18 02:27:00,
2013-02-17 20:32:00,43.8,34.3,29.96,ENE,61,0.0,0.0,69,0.00,CLR,,0.00,0.0,WeatherDisplay:10.37,2013-02-18 02:32:00,
2013-02-17 20:37:00,43.8,34.3,29.96,ENE,61,0.0,0.0,69,0.00,CLR,,0.00,0.0,WeatherDisplay:10.37,2013-02-18 02:37:00,
2013-02-17 20:42:00,44.2,34.3,29.96,ENE,61,0.0,0.0,68,0.00,CLR,,0.00,0.0,WeatherDisplay:10.37,2013-02-18 02:42:00,
2013-02-17 20:47:00,44.6,34.3,29.96,ENE,61,0.0,0.0,67,0.00,CLR,,0.00,0.0,WeatherDisplay:10.37,2013-02-18 02:47:00,
2013-02-17 20:52:00,44.6,34.3,29.95,ENE,61,0.0,0.0,67,0.00,CLR,,0.00,0.0,WeatherDisplay:10.37,2013-02-18 02:52:00,
2013-02-17 20:57:00,44.4,34.5,29.95,ENE,61,0.0,0.0,68,0.00,CLR,,0.00,0.0,WeatherDisplay:10.37,2013-02-18 02:57:00,
2013-02-17 21:02:00,43.9,34.4,29.95,ENE,61,0.0,0.0,69,0.00,CLR,,0.00,0.0,WeatherDisplay:10.37,2013-02-18 03:02:00,
2013-02-17 21:07:00,43.8,34.3,29.95,ENE,61,0.0,0.0,69,0.00,CLR,,0.00,0.0,WeatherDisplay:10.37,2013-02-18 03:07:00,
2013-02-17 21:12:00,43.5,34.0,29.95,ENE,61,0.0,0.0,69,0.00,CLR,,0.00,0.0,WeatherDisplay:10.37,2013-02-18 03:12:00,
2013-02-17 21:17:00,43.2,34.1,29.95,ENE,61,0.0,0.0,70,0.00,CLR,,0.00,0.0,WeatherDisplay:10.37,2013-02-18 03:17:00,
2013-02-17 21:22:00,42.9,34.1,29.95,ENE,61,0.0,0.0,71,0.00,CLR,,0.00,0.0,WeatherDisplay:10.37,2013-02-18 03:22:00,
2013-02-17 21:27:00,42.7,33.9,29.95,ENE,61,0.0,0.0,71,0.00,CLR,,0.00,0.0,WeatherDisplay:10.37,2013-02-18 03:27:00,
2013-02-17 21:32:00,42.3,33.9,29.95,ENE,61,0.0,0.0,72,0.00,CLR,,0.00,0.0,WeatherDisplay:10.37,2013-02-18 03:32:00,
2013-02-17 21:37:00,42.3,33.9,29.95,ENE,61,0.0,0.0,72,0.00,CLR,,0.00,0.0,WeatherDisplay:10.37,2013-02-18 03:37:00,
2013-02-17 21:42:00,42.6,33.9,29.95,ENE,61,0.0,0.0,71,0.00,CLR,,0.00,0.0,WeatherDisplay:10.37,2013-02-18 03:42:00,
2013-02-17 21:47:00,42.5,34.1,29.95,ENE,61,0.0,0.0,72,0.00,CLR,,0.00,0.0,WeatherDisplay:10.37,2013-02-18 03:47:00,
2013-02-17 21:52:00,42.3,33.9,29.95,ENE,61,0.0,0.0,72,0.00,CLR,,0.00,0.0,WeatherDisplay:10.37,2013-02-18 03:52:00,
2013-02-17 21:57:00,42.2,33.8,29.95,ENE,61,0.0,0.0,72,0.00,CLR,,0.00,0.0,WeatherDisplay:10.37,2013-02-18 03:57:00,
2013-02-17 22:02:00,42.1,33.7,29.95,ENE,61,0.0,0.0,72,0.00,CLR,,0.00,0.0,WeatherDisplay:10.37,2013-02-18 04:02:00,
2013-02-17 22:07:00,41.7,33.7,29.95,ENE,61,0.0,0.0,73,0.00,CLR,,0.00,0.0,WeatherDisplay:10.37,2013-02-18 04:07:00,
2013-02-17 22:12:00,41.7,33.7,29.95,ENE,61,0.0,0.0,73,0.00,CLR,,0.00,0.0,WeatherDisplay:10.37,2013-02-18 04:12:00,
2013-02-17 22:17:00,42.3,33.9,29.95,ENE,61,0.0,0.0,72,0.00,CLR,,0.00,0.0,WeatherDisplay:10.37,2013-02-18 04:17:00,
2013-02-17 22:22:00,42.7,33.9,29.95,ENE,61,0.0,0.0,71,0.00,CLR,,0.00,0.0,WeatherDisplay:10.37,2013-02-18 04:22:00,
2013-02-17 22:27:00,42.4,33.7,29.94,ENE,61,0.0,0.0,71,0.00,CLR,,0.00,0.0,WeatherDisplay:10.37,2013-02-18 04:27:00,
2013-02-17 22:32:00,42.0,33.6,29.94,ENE,61,0.0,0.0,72,0.00,CLR,,0.00,0.0,WeatherDisplay:10.37,2013-02-18 04:32:00,
2013-02-17 22:37:00,42.2,33.8,29.94,ENE,61,0.0,0.0,72,0.00,CLR,,0.00,0.0,WeatherDisplay:10.37,2013-02-18 04:37:00,
2013-02-17 22:42:00,42.2,33.8,29.94,ENE,61,0.0,0.0,72,0.00,CLR,,0.00,0.0,WeatherDisplay:10.37,2013-02-18 04:42:00,
2013-02-17 22:47:00,42.5,33.8,29.94,NNE,32,0.0,0.0,71,0.00,CLR,,0.00,0.0,WeatherDisplay:10.37,2013-02-18 04:47:00,
2013-02-17 22:52:00,42.6,33.9,29.94,NE,49,2.0,2.6,71,0.00,CLR,,0.00,0.0,WeatherDisplay:10.37,2013-02-18 04:52:00,
2013-02-17 22:57:00,42.6,33.9,29.94,NE,37,0.7,1.3,71,0.00,CLR,,0.00,0.0,WeatherDisplay:10.37,2013-02-18 04:57:00,
2013-02-17 23:00:00,42.6,33.9,29.94,NNE,32,1.1,3.5,71,0.00,CLR,,0.00,0.0,WeatherDisplay:10.37,2013-02-18 05:00:00,
2013-02-17 23:01:00,42.5,33.8,29.94,NNE,32,0.0,1.1,71,0.00,CLR,,0.00,0.0,WeatherDisplay:10.37,2013-02-18 05:01:00,
2013-02-17 23:06:00,42.6,33.9,29.93,NNE,33,0.0,0.0,71,0.00,CLR,,0.00,0.0,WeatherDisplay:10.37,2013-02-18 05:06:00,
2013-02-17 23:11:00,42.6,33.9,29.93,NNE,33,0.0,0.0,71,0.00,CLR,,0.00,0.0,WeatherDisplay:10.37,2013-02-18 05:11:00,
2013-02-17 23:16:00,42.5,33.8,29.93,NNE,33,0.0,0.0,71,0.00,CLR,,0.00,0.0,WeatherDisplay:10.37,2013-02-18 05:16:00,
2013-02-17 23:21:00,43.1,34.0,29.93,NNE,33,0.0,0.0,70,0.00,CLR,,0.00,0.0,WeatherDisplay:10.37,2013-02-18 05:21:00,
2013-02-17 23:26:00,42.9,33.8,29.93,NNE,33,0.0,0.0,70,0.00,CLR,,0.00,0.0,WeatherDisplay:10.37,2013-02-18 05:26:00,
2013-02-17 23:31:00,42.8,33.7,29.93,NNE,33,0.0,0.0,70,0.00,CLR,,0.00,0.0,WeatherDisplay:10.37,2013-02-18 05:31:00,
2013-02-17 23:36:00,42.9,33.8,29.93,NNE,33,0.0,0.0,70,0.00,CLR,,0.00,0.0,WeatherDisplay:10.37,2013-02-18 05:36:00,
2013-02-17 23:41:00,43.1,34.0,29.93,NNE,33,1.5,2.6,70,0.00,CLR,,0.00,0.0,WeatherDisplay:10.37,2013-02-18 05:41:00,
2013-02-17 23:46:00,42.8,33.7,29.93,NNE,33,0.0,0.0,70,0.00,CLR,,0.00,0.0,WeatherDisplay:10.37,2013-02-18 05:46:00,
2013-02-17 23:51:00,42.7,33.9,29.92,NNE,33,0.0,0.0,71,0.00,CLR,,0.00,0.0,WeatherDisplay:10.37,2013-02-18 05:51:00,
2013-02-17 23:56:00,42.5,34.1,29.92,NNE,33,0.0,0.0,72,0.00,CLR,,0.00,0.0,WeatherDisplay:10.37,2013-02-18 05:56:00,